sensor_id;sensor_type;location;lat;lon;timestamp;pressure;altitude;pressure_sealevel;temperature;humidity
46768;BME280;69007;48.978;18.066;2023-04-04T00:00:53;97904.19;;;-0.26;80.43
46768;BME280;69007;48.978;18.066;2023-04-04T00:03:19;97896.16;;;-0.26;80.04
46768;BME280;69007;48.978;18.066;2023-04-04T00:05:45;97895.16;;;-0.25;80.37
46768;BME280;69007;48.978;18.066;2023-04-04T00:08:10;97891.25;;;-0.22;80.02
46768;BME280;69007;48.978;18.066;2023-04-04T00:10:36;97899.09;;;-0.21;80.08
46768;BME280;69007;48.978;18.066;2023-04-04T00:13:01;97883.03;;;-0.21;80.67
46768;BME280;69007;48.978;18.066;2023-04-04T00:15:27;97902.13;;;-0.24;80.57
46768;BME280;69007;48.978;18.066;2023-04-04T00:17:52;97890.28;;;-0.36;81.05
46768;BME280;69007;48.978;18.066;2023-04-04T00:20:18;97878.00;;;-0.30;80.76
46768;BME280;69007;48.978;18.066;2023-04-04T00:22:43;97895.78;;;-0.23;80.13
46768;BME280;69007;48.978;18.066;2023-04-04T00:25:09;97882.47;;;-0.16;79.55
46768;BME280;69007;48.978;18.066;2023-04-04T00:27:35;97899.66;;;-0.04;78.57
46768;BME280;69007;48.978;18.066;2023-04-04T00:30:00;97887.63;;;-0.14;79.09
46768;BME280;69007;48.978;18.066;2023-04-04T00:32:25;97903.69;;;-0.14;79.43
46768;BME280;69007;48.978;18.066;2023-04-04T00:34:52;97909.22;;;-0.16;79.75
46768;BME280;69007;48.978;18.066;2023-04-04T00:37:17;97916.88;;;-0.13;79.89
46768;BME280;69007;48.978;18.066;2023-04-04T00:39:43;97904.06;;;-0.17;79.46
46768;BME280;69007;48.978;18.066;2023-04-04T00:42:08;97916.31;;;-0.08;78.94
46768;BME280;69007;48.978;18.066;2023-04-04T00:44:34;97894.00;;;-0.15;79.38
46768;BME280;69007;48.978;18.066;2023-04-04T00:47:00;97878.75;;;-0.15;78.83
46768;BME280;69007;48.978;18.066;2023-04-04T00:49:26;97899.84;;;-0.05;78.19
46768;BME280;69007;48.978;18.066;2023-04-04T00:51:51;97910.94;;;-0.08;78.26
46768;BME280;69007;48.978;18.066;2023-04-04T00:54:17;97919.59;;;-0.06;78.93
46768;BME280;69007;48.978;18.066;2023-04-04T00:56:42;97925.22;;;-0.01;78.83
46768;BME280;69007;48.978;18.066;2023-04-04T00:59:08;97914.50;;;-0.01;78.54
46768;BME280;69007;48.978;18.066;2023-04-04T01:01:34;97911.28;;;0.04;78.45
46768;BME280;69007;48.978;18.066;2023-04-04T01:04:00;97918.63;;;0.02;78.55
46768;BME280;69007;48.978;18.066;2023-04-04T01:06:26;97938.59;;;-0.01;78.74
46768;BME280;69007;48.978;18.066;2023-04-04T01:08:53;97909.22;;;0.06;77.13
46768;BME280;69007;48.978;18.066;2023-04-04T01:11:19;97917.75;;;-0.06;78.14
46768;BME280;69007;48.978;18.066;2023-04-04T01:13:45;97906.41;;;-0.08;77.81
46768;BME280;69007;48.978;18.066;2023-04-04T01:16:11;97918.97;;;-0.08;78.71
46768;BME280;69007;48.978;18.066;2023-04-04T01:18:37;97903.69;;;-0.14;78.31
46768;BME280;69007;48.978;18.066;2023-04-04T01:21:08;97901.56;;;-0.19;78.99
46768;BME280;69007;48.978;18.066;2023-04-04T01:23:50;97939.09;;;-0.12;79.33
46768;BME280;69007;48.978;18.066;2023-04-04T01:26:21;97933.91;;;-0.14;78.14
46768;BME280;69007;48.978;18.066;2023-04-04T01:28:48;97921.44;;;-0.07;77.18
46768;BME280;69007;48.978;18.066;2023-04-04T01:31:13;97915.19;;;-0.14;77.24
46768;BME280;69007;48.978;18.066;2023-04-04T01:33:45;97919.47;;;-0.20;76.59
46768;BME280;69007;48.978;18.066;2023-04-04T01:37:02;97922.84;;;-0.11;75.49
46768;BME280;69007;48.978;18.066;2023-04-04T01:39:31;97922.22;;;-0.13;75.18
46768;BME280;69007;48.978;18.066;2023-04-04T01:42:01;97904.81;;;-0.24;74.82
46768;BME280;69007;48.978;18.066;2023-04-04T01:44:27;97920.81;;;-0.09;74.35
46768;BME280;69007;48.978;18.066;2023-04-04T01:46:53;97918.50;;;-0.12;73.29
46768;BME280;69007;48.978;18.066;2023-04-04T01:49:22;97918.19;;;-0.02;73.05
46768;BME280;69007;48.978;18.066;2023-04-04T01:51:49;97927.25;;;-0.03;72.24
46768;BME280;69007;48.978;18.066;2023-04-04T01:54:15;97934.25;;;-0.02;71.56
46768;BME280;69007;48.978;18.066;2023-04-04T01:56:43;97921.91;;;-0.03;70.87
46768;BME280;69007;48.978;18.066;2023-04-04T01:59:08;97913.28;;;0.02;70.70
46768;BME280;69007;48.978;18.066;2023-04-04T02:01:33;97924.84;;;0.02;70.07
46768;BME280;69007;48.978;18.066;2023-04-04T02:03:59;97926.41;;;-0.04;71.11
46768;BME280;69007;48.978;18.066;2023-04-04T02:06:24;97908.84;;;-0.13;71.08
46768;BME280;69007;48.978;18.066;2023-04-04T02:08:50;97907.44;;;-0.09;69.34
46768;BME280;69007;48.978;18.066;2023-04-04T02:11:15;97907.25;;;-0.07;69.64
46768;BME280;69007;48.978;18.066;2023-04-04T02:13:40;97921.72;;;-0.02;68.62
46768;BME280;69007;48.978;18.066;2023-04-04T02:16:08;97894.91;;;-0.08;68.08
46768;BME280;69007;48.978;18.066;2023-04-04T02:18:34;97919.72;;;-0.14;67.06
46768;BME280;69007;48.978;18.066;2023-04-04T02:21:01;97913.09;;;0.03;67.06
46768;BME280;69007;48.978;18.066;2023-04-04T02:23:26;97914.44;;;-0.08;67.76
46768;BME280;69007;48.978;18.066;2023-04-04T02:25:51;97916.88;;;-0.13;67.72
46768;BME280;69007;48.978;18.066;2023-04-04T02:28:17;97923.16;;;0.01;66.00
46768;BME280;69007;48.978;18.066;2023-04-04T02:30:43;97887.69;;;-0.08;65.80
46768;BME280;69007;48.978;18.066;2023-04-04T02:33:08;97900.44;;;0.12;64.12
46768;BME280;69007;48.978;18.066;2023-04-04T02:35:33;97922.66;;;0.12;64.18
46768;BME280;69007;48.978;18.066;2023-04-04T02:37:59;97901.88;;;0.14;64.85
46768;BME280;69007;48.978;18.066;2023-04-04T02:40:24;97907.94;;;0.02;64.94
46768;BME280;69007;48.978;18.066;2023-04-04T02:42:50;97892.72;;;0.02;63.96
46768;BME280;69007;48.978;18.066;2023-04-04T02:45:15;97881.41;;;0.00;64.72
46768;BME280;69007;48.978;18.066;2023-04-04T02:47:41;97890.06;;;0.02;64.37
46768;BME280;69007;48.978;18.066;2023-04-04T02:50:08;97872.91;;;-0.04;64.77
46768;BME280;69007;48.978;18.066;2023-04-04T02:52:33;97918.44;;;0.03;65.38
46768;BME280;69007;48.978;18.066;2023-04-04T02:54:59;97906.22;;;0.15;64.90
46768;BME280;69007;48.978;18.066;2023-04-04T02:57:24;97897.69;;;0.05;65.23
46768;BME280;69007;48.978;18.066;2023-04-04T02:59:49;97871.56;;;0.07;64.86
46768;BME280;69007;48.978;18.066;2023-04-04T03:02:15;97896.53;;;0.14;65.53
46768;BME280;69007;48.978;18.066;2023-04-04T03:04:40;97876.28;;;0.05;65.70
46768;BME280;69007;48.978;18.066;2023-04-04T03:07:05;97898.19;;;0.15;66.30
46768;BME280;69007;48.978;18.066;2023-04-04T03:09:31;97896.16;;;0.17;65.64
46768;BME280;69007;48.978;18.066;2023-04-04T03:11:56;97880.34;;;0.23;65.48
46768;BME280;69007;48.978;18.066;2023-04-04T03:14:21;97871.44;;;0.15;64.94
46768;BME280;69007;48.978;18.066;2023-04-04T03:16:47;97875.00;;;0.23;66.26
46768;BME280;69007;48.978;18.066;2023-04-04T03:19:16;97874.94;;;0.16;66.03
46768;BME280;69007;48.978;18.066;2023-04-04T03:21:41;97870.63;;;0.15;66.45
46768;BME280;69007;48.978;18.066;2023-04-04T03:24:06;97872.25;;;0.16;66.19
46768;BME280;69007;48.978;18.066;2023-04-04T03:26:32;97855.75;;;0.12;66.00
46768;BME280;69007;48.978;18.066;2023-04-04T03:28:58;97876.47;;;0.25;65.63
46768;BME280;69007;48.978;18.066;2023-04-04T03:31:23;97833.69;;;0.04;65.49
46768;BME280;69007;48.978;18.066;2023-04-04T03:33:48;97862.78;;;0.13;65.75
46768;BME280;69007;48.978;18.066;2023-04-04T03:36:14;97851.31;;;-0.02;66.31
46768;BME280;69007;48.978;18.066;2023-04-04T03:38:39;97839.59;;;-0.01;66.35
46768;BME280;69007;48.978;18.066;2023-04-04T03:41:05;97835.59;;;-0.12;67.21
46768;BME280;69007;48.978;18.066;2023-04-04T03:43:32;97830.03;;;-0.10;68.31
46768;BME280;69007;48.978;18.066;2023-04-04T03:46:01;97834.75;;;-0.12;68.85
46768;BME280;69007;48.978;18.066;2023-04-04T03:48:27;97817.31;;;-0.08;68.59
46768;BME280;69007;48.978;18.066;2023-04-04T03:50:52;97822.44;;;-0.07;70.11
46768;BME280;69007;48.978;18.066;2023-04-04T03:53:18;97823.56;;;-0.23;71.12
46768;BME280;69007;48.978;18.066;2023-04-04T03:55:43;97828.84;;;-0.08;72.53
46768;BME280;69007;48.978;18.066;2023-04-04T03:58:09;97826.31;;;-0.16;72.47
46768;BME280;69007;48.978;18.066;2023-04-04T04:00:34;97829.84;;;-0.09;72.05
46768;BME280;69007;48.978;18.066;2023-04-04T04:02:59;97818.91;;;-0.14;72.43
46768;BME280;69007;48.978;18.066;2023-04-04T04:05:25;97819.91;;;-0.15;72.06
46768;BME280;69007;48.978;18.066;2023-04-04T04:07:50;97807.91;;;-0.26;71.30
46768;BME280;69007;48.978;18.066;2023-04-04T04:10:17;97818.28;;;-0.16;71.68
46768;BME280;69007;48.978;18.066;2023-04-04T04:12:42;97839.63;;;-0.23;72.78
46768;BME280;69007;48.978;18.066;2023-04-04T04:15:08;97839.22;;;-0.20;72.31
46768;BME280;69007;48.978;18.066;2023-04-04T04:17:33;97834.91;;;-0.21;72.45
46768;BME280;69007;48.978;18.066;2023-04-04T04:19:58;97825.53;;;-0.31;71.86
46768;BME280;69007;48.978;18.066;2023-04-04T04:22:24;97834.91;;;-0.21;72.64
46768;BME280;69007;48.978;18.066;2023-04-04T04:24:49;97822.47;;;-0.28;72.05
46768;BME280;69007;48.978;18.066;2023-04-04T04:27:15;97850.63;;;-0.11;72.51
46768;BME280;69007;48.978;18.066;2023-04-04T04:29:40;97825.66;;;-0.18;72.00
46768;BME280;69007;48.978;18.066;2023-04-04T04:32:05;97839.59;;;-0.01;70.35
46768;BME280;69007;48.978;18.066;2023-04-04T04:34:31;97818.97;;;-0.07;70.85
46768;BME280;69007;48.978;18.066;2023-04-04T04:36:57;97830.94;;;-0.03;71.12
46768;BME280;69007;48.978;18.066;2023-04-04T04:39:22;97834.88;;;0.01;70.87
46768;BME280;69007;48.978;18.066;2023-04-04T04:41:47;97812.44;;;0.59;68.96
46768;BME280;69007;48.978;18.066;2023-04-04T04:44:12;97845.81;;;1.53;66.74
46768;BME280;69007;48.978;18.066;2023-04-04T04:46:38;97852.06;;;2.73;61.59
46768;BME280;69007;48.978;18.066;2023-04-04T04:49:03;97817.16;;;3.96;57.85
46768;BME280;69007;48.978;18.066;2023-04-04T04:51:29;97860.03;;;4.29;53.91
46768;BME280;69007;48.978;18.066;2023-04-04T04:53:54;97834.34;;;4.27;55.23
46768;BME280;69007;48.978;18.066;2023-04-04T04:56:20;97861.44;;;6.28;50.13
46768;BME280;69007;48.978;18.066;2023-04-04T04:58:45;97838.97;;;7.34;46.61
46768;BME280;69007;48.978;18.066;2023-04-04T05:01:11;97871.16;;;6.95;46.82
46768;BME280;69007;48.978;18.066;2023-04-04T05:03:37;97864.13;;;5.86;49.23
46768;BME280;69007;48.978;18.066;2023-04-04T05:06:02;97859.25;;;5.09;51.12
46768;BME280;69007;48.978;18.066;2023-04-04T05:08:28;97856.84;;;4.83;53.01
46768;BME280;69007;48.978;18.066;2023-04-04T05:10:53;97862.78;;;5.28;53.41
46768;BME280;69007;48.978;18.066;2023-04-04T05:13:19;97867.19;;;8.25;45.98
46768;BME280;69007;48.978;18.066;2023-04-04T05:15:45;97857.81;;;11.08;40.10
46768;BME280;69007;48.978;18.066;2023-04-04T05:18:11;97853.84;;;9.25;42.26
46768;BME280;69007;48.978;18.066;2023-04-04T05:20:36;97873.44;;;9.71;41.54
46768;BME280;69007;48.978;18.066;2023-04-04T05:23:01;97863.81;;;11.63;37.93
46768;BME280;69007;48.978;18.066;2023-04-04T05:25:27;97876.66;;;10.18;38.93
46768;BME280;69007;48.978;18.066;2023-04-04T05:31:22;97879.19;;;14.64;34.43
46768;BME280;69007;48.978;18.066;2023-04-04T05:33:47;97874.56;;;15.72;31.98
46768;BME280;69007;48.978;18.066;2023-04-04T05:36:12;97869.69;;;16.88;30.94
46768;BME280;69007;48.978;18.066;2023-04-04T05:38:38;97881.25;;;17.31;29.82
46768;BME280;69007;48.978;18.066;2023-04-04T05:41:03;97873.72;;;18.79;29.51
46768;BME280;69007;48.978;18.066;2023-04-04T05:43:29;97892.72;;;19.26;26.84
46768;BME280;69007;48.978;18.066;2023-04-04T05:45:55;97891.66;;;21.04;26.90
46768;BME280;69007;48.978;18.066;2023-04-04T05:48:20;97885.50;;;21.63;26.05
46768;BME280;69007;48.978;18.066;2023-04-04T05:50:45;97892.94;;;21.80;25.05
46768;BME280;69007;48.978;18.066;2023-04-04T05:53:11;97895.81;;;19.33;27.24
46768;BME280;69007;48.978;18.066;2023-04-04T05:55:36;97882.16;;;17.27;29.00
46768;BME280;69007;48.978;18.066;2023-04-04T05:58:02;97895.81;;;18.43;27.51
46768;BME280;69007;48.978;18.066;2023-04-04T06:00:27;97893.69;;;21.42;26.11
46768;BME280;69007;48.978;18.066;2023-04-04T06:02:55;97888.41;;;23.31;23.72
46768;BME280;69007;48.978;18.066;2023-04-04T06:05:21;97905.81;;;23.19;24.17
46768;BME280;69007;48.978;18.066;2023-04-04T06:07:46;97893.06;;;20.22;25.08
46768;BME280;69007;48.978;18.066;2023-04-04T06:10:12;97880.47;;;16.27;29.51
46768;BME280;69007;48.978;18.066;2023-04-04T06:12:37;97903.84;;;21.20;24.85
46768;BME280;69007;48.978;18.066;2023-04-04T06:15:02;97900.00;;;22.28;24.03
46768;BME280;69007;48.978;18.066;2023-04-04T06:17:28;97890.22;;;20.71;25.25
46768;BME280;69007;48.978;18.066;2023-04-04T06:19:53;97914.22;;;20.27;25.50
46768;BME280;69007;48.978;18.066;2023-04-04T06:22:19;97898.66;;;19.42;24.96
46768;BME280;69007;48.978;18.066;2023-04-04T06:24:45;97897.41;;;19.57;25.57
46768;BME280;69007;48.978;18.066;2023-04-04T06:27:11;97902.31;;;21.49;24.05
46768;BME280;69007;48.978;18.066;2023-04-04T06:29:36;97890.88;;;19.84;24.71
46768;BME280;69007;48.978;18.066;2023-04-04T06:32:02;97882.19;;;20.09;23.98
46768;BME280;69007;48.978;18.066;2023-04-04T06:34:29;97885.22;;;21.38;23.80
46768;BME280;69007;48.978;18.066;2023-04-04T06:36:55;97884.34;;;18.86;24.84
46768;BME280;69007;48.978;18.066;2023-04-04T06:39:20;97885.31;;;12.33;30.19
46768;BME280;69007;48.978;18.066;2023-04-04T06:41:45;97889.44;;;14.43;29.99
46768;BME280;69007;48.978;18.066;2023-04-04T06:44:12;97887.63;;;18.01;25.42
46768;BME280;69007;48.978;18.066;2023-04-04T06:46:37;97888.72;;;18.28;24.12
46768;BME280;69007;48.978;18.066;2023-04-04T06:49:03;97873.91;;;14.73;28.04
46768;BME280;69007;48.978;18.066;2023-04-04T06:51:29;97876.59;;;14.83;29.61
46768;BME280;69007;48.978;18.066;2023-04-04T06:53:55;97890.16;;;17.70;25.91
46768;BME280;69007;48.978;18.066;2023-04-04T06:56:21;97895.47;;;19.98;24.29
46768;BME280;69007;48.978;18.066;2023-04-04T06:58:47;97893.94;;;19.43;23.91
46768;BME280;69007;48.978;18.066;2023-04-04T07:01:13;97876.97;;;20.16;23.84
46768;BME280;69007;48.978;18.066;2023-04-04T07:03:38;97890.28;;;23.52;21.69
46768;BME280;69007;48.978;18.066;2023-04-04T07:06:03;97880.31;;;25.18;19.88
46768;BME280;69007;48.978;18.066;2023-04-04T07:08:29;97881.56;;;26.13;18.87
46768;BME280;69007;48.978;18.066;2023-04-04T07:10:55;97874.25;;;24.07;20.22
46768;BME280;69007;48.978;18.066;2023-04-04T07:13:20;97867.63;;;23.74;21.41
46768;BME280;69007;48.978;18.066;2023-04-04T07:15:46;97882.53;;;26.21;19.56
46768;BME280;69007;48.978;18.066;2023-04-04T07:18:15;97903.63;;;22.92;20.18
46768;BME280;69007;48.978;18.066;2023-04-04T07:20:40;97882.44;;;23.08;21.07
46768;BME280;69007;48.978;18.066;2023-04-04T07:23:06;97889.69;;;22.37;20.81
46768;BME280;69007;48.978;18.066;2023-04-04T07:25:31;97877.00;;;21.03;21.46
46768;BME280;69007;48.978;18.066;2023-04-04T07:27:56;97894.03;;;16.18;25.12
46768;BME280;69007;48.978;18.066;2023-04-04T07:30:22;97871.72;;;12.64;30.20
46768;BME280;69007;48.978;18.066;2023-04-04T07:33:01;97873.59;;;11.06;31.21
46768;BME280;69007;48.978;18.066;2023-04-04T07:35:27;97879.31;;;10.12;33.14
46768;BME280;69007;48.978;18.066;2023-04-04T07:37:53;97865.44;;;8.64;35.38
46768;BME280;69007;48.978;18.066;2023-04-04T07:40:18;97873.84;;;8.46;35.11
46768;BME280;69007;48.978;18.066;2023-04-04T07:42:47;97885.13;;;8.26;35.49
46768;BME280;69007;48.978;18.066;2023-04-04T07:45:16;97882.81;;;7.60;37.12
46768;BME280;69007;48.978;18.066;2023-04-04T07:47:43;97878.88;;;7.15;37.22
46768;BME280;69007;48.978;18.066;2023-04-04T07:50:09;97875.50;;;7.08;38.56
46768;BME280;69007;48.978;18.066;2023-04-04T07:52:35;97881.81;;;7.37;36.74
46768;BME280;69007;48.978;18.066;2023-04-04T07:55:00;97882.50;;;7.45;37.80
46768;BME280;69007;48.978;18.066;2023-04-04T07:57:27;97890.31;;;6.94;37.61
46768;BME280;69007;48.978;18.066;2023-04-04T07:59:53;97865.34;;;6.44;38.12
46768;BME280;69007;48.978;18.066;2023-04-04T08:02:18;97897.00;;;6.56;38.87
46768;BME280;69007;48.978;18.066;2023-04-04T08:04:43;97876.91;;;6.52;38.80
46768;BME280;69007;48.978;18.066;2023-04-04T08:07:08;97885.75;;;6.17;38.70
46768;BME280;69007;48.978;18.066;2023-04-04T08:09:34;97875.81;;;5.50;40.31
46768;BME280;69007;48.978;18.066;2023-04-04T08:12:01;97855.00;;;5.20;40.97
46768;BME280;69007;48.978;18.066;2023-04-04T08:14:26;97850.50;;;5.14;42.91
46768;BME280;69007;48.978;18.066;2023-04-04T08:16:52;97858.78;;;5.68;42.70
46768;BME280;69007;48.978;18.066;2023-04-04T08:19:18;97873.31;;;6.16;42.16
46768;BME280;69007;48.978;18.066;2023-04-04T08:21:44;97880.28;;;6.35;43.17
46768;BME280;69007;48.978;18.066;2023-04-04T08:24:11;97864.44;;;6.08;42.88
46768;BME280;69007;48.978;18.066;2023-04-04T08:26:36;97897.63;;;5.67;44.50
46768;BME280;69007;48.978;18.066;2023-04-04T08:29:02;97883.97;;;5.62;44.30
46768;BME280;69007;48.978;18.066;2023-04-04T08:31:27;97910.28;;;5.11;43.53
46768;BME280;69007;48.978;18.066;2023-04-04T08:33:53;97881.53;;;5.23;43.79
46768;BME280;69007;48.978;18.066;2023-04-04T08:36:19;97881.19;;;4.94;44.08
46768;BME280;69007;48.978;18.066;2023-04-04T08:38:44;97880.59;;;4.92;43.90
46768;BME280;69007;48.978;18.066;2023-04-04T08:41:11;97879.03;;;5.03;44.06
46768;BME280;69007;48.978;18.066;2023-04-04T08:43:37;97881.16;;;4.57;44.09
46768;BME280;69007;48.978;18.066;2023-04-04T08:46:07;97853.59;;;4.55;45.16
46768;BME280;69007;48.978;18.066;2023-04-04T08:48:34;97866.25;;;4.98;43.89
46768;BME280;69007;48.978;18.066;2023-04-04T08:51:02;97874.28;;;4.80;44.70
46768;BME280;69007;48.978;18.066;2023-04-04T08:53:29;97881.97;;;5.02;45.45
46768;BME280;69007;48.978;18.066;2023-04-04T08:55:58;97892.56;;;5.22;44.14
46768;BME280;69007;48.978;18.066;2023-04-04T08:58:24;97877.16;;;5.59;44.37
46768;BME280;69007;48.978;18.066;2023-04-04T09:00:54;97889.56;;;5.79;43.60
46768;BME280;69007;48.978;18.066;2023-04-04T09:03:26;97853.91;;;5.58;43.07
46768;BME280;69007;48.978;18.066;2023-04-04T09:05:55;97878.41;;;5.75;43.57
46768;BME280;69007;48.978;18.066;2023-04-04T09:08:21;97871.59;;;5.72;43.33
46768;BME280;69007;48.978;18.066;2023-04-04T09:10:51;97845.63;;;5.71;43.28
46768;BME280;69007;48.978;18.066;2023-04-04T09:13:17;97852.13;;;6.01;43.82
46768;BME280;69007;48.978;18.066;2023-04-04T09:15:46;97838.44;;;5.65;45.60
46768;BME280;69007;48.978;18.066;2023-04-04T09:18:11;97887.31;;;5.76;44.07
46768;BME280;69007;48.978;18.066;2023-04-04T09:23:04;97842.38;;;6.12;45.22
46768;BME280;69007;48.978;18.066;2023-04-04T09:25:31;97854.03;;;5.94;43.30
46768;BME280;69007;48.978;18.066;2023-04-04T09:27:56;97858.34;;;6.01;44.46
46768;BME280;69007;48.978;18.066;2023-04-04T09:30:22;97853.66;;;6.08;42.93
46768;BME280;69007;48.978;18.066;2023-04-04T09:32:47;97861.88;;;5.53;44.73
46768;BME280;69007;48.978;18.066;2023-04-04T09:35:13;97846.53;;;5.35;45.27
46768;BME280;69007;48.978;18.066;2023-04-04T09:41:21;97870.13;;;6.19;44.10
46768;BME280;69007;48.978;18.066;2023-04-04T09:43:49;97846.50;;;6.14;44.61
46768;BME280;69007;48.978;18.066;2023-04-04T09:46:18;97850.44;;;6.54;45.25
46768;BME280;69007;48.978;18.066;2023-04-04T09:48:47;97858.31;;;5.71;44.93
46768;BME280;69007;48.978;18.066;2023-04-04T09:51:14;97855.84;;;5.51;46.09
46768;BME280;69007;48.978;18.066;2023-04-04T09:53:40;97836.00;;;5.76;46.96
46768;BME280;69007;48.978;18.066;2023-04-04T09:56:06;97832.59;;;5.68;46.73
46768;BME280;69007;48.978;18.066;2023-04-04T09:58:32;97845.63;;;5.41;46.22
46768;BME280;69007;48.978;18.066;2023-04-04T10:01:01;97859.94;;;5.42;48.03
46768;BME280;69007;48.978;18.066;2023-04-04T10:03:29;97856.09;;;5.31;48.10
46768;BME280;69007;48.978;18.066;2023-04-04T10:06:14;97868.13;;;5.65;50.57
46768;BME280;69007;48.978;18.066;2023-04-04T10:08:40;97847.84;;;5.63;49.24
46768;BME280;69007;48.978;18.066;2023-04-04T10:11:07;97845.53;;;6.08;47.13
46768;BME280;69007;48.978;18.066;2023-04-04T10:13:34;97852.59;;;5.79;46.82
46768;BME280;69007;48.978;18.066;2023-04-04T10:16:01;97840.09;;;5.66;47.15
46768;BME280;69007;48.978;18.066;2023-04-04T10:18:34;97847.72;;;5.39;46.25
46768;BME280;69007;48.978;18.066;2023-04-04T10:21:02;97827.75;;;5.10;48.65
46768;BME280;69007;48.978;18.066;2023-04-04T10:23:27;97832.72;;;5.43;48.83
46768;BME280;69007;48.978;18.066;2023-04-04T10:25:53;97874.56;;;5.15;46.80
46768;BME280;69007;48.978;18.066;2023-04-04T10:28:19;97858.16;;;5.17;46.53
46768;BME280;69007;48.978;18.066;2023-04-04T10:30:51;97861.16;;;5.09;46.42
46768;BME280;69007;48.978;18.066;2023-04-04T10:33:43;97852.06;;;5.03;47.33
46768;BME280;69007;48.978;18.066;2023-04-04T10:36:10;97836.19;;;5.13;46.99
46768;BME280;69007;48.978;18.066;2023-04-04T10:38:41;97858.75;;;5.19;46.16
46768;BME280;69007;48.978;18.066;2023-04-04T10:41:06;97840.16;;;5.48;46.52
46768;BME280;69007;48.978;18.066;2023-04-04T10:43:33;97833.09;;;5.77;48.06
46768;BME280;69007;48.978;18.066;2023-04-04T10:46:07;97849.22;;;6.26;45.32
46768;BME280;69007;48.978;18.066;2023-04-04T10:48:36;97832.09;;;6.20;45.49
46768;BME280;69007;48.978;18.066;2023-04-04T10:51:03;97888.19;;;6.49;45.26
46768;BME280;69007;48.978;18.066;2023-04-04T10:53:29;97870.34;;;5.57;44.84
46768;BME280;69007;48.978;18.066;2023-04-04T10:55:55;97873.44;;;5.23;44.31
46768;BME280;69007;48.978;18.066;2023-04-04T10:58:21;97860.34;;;5.08;45.23
46768;BME280;69007;48.978;18.066;2023-04-04T11:00:51;97861.22;;;5.02;44.97
46768;BME280;69007;48.978;18.066;2023-04-04T11:03:19;97877.41;;;5.58;46.27
46768;BME280;69007;48.978;18.066;2023-04-04T11:05:44;97870.13;;;6.19;45.48
46768;BME280;69007;48.978;18.066;2023-04-04T11:08:21;97861.53;;;6.22;43.96
46768;BME280;69007;48.978;18.066;2023-04-04T11:10:50;97877.03;;;6.15;43.18
46768;BME280;69007;48.978;18.066;2023-04-04T11:13:16;97870.91;;;5.28;45.17
46768;BME280;69007;48.978;18.066;2023-04-04T11:15:54;97867.50;;;5.14;46.22
46768;BME280;69007;48.978;18.066;2023-04-04T11:26:16;97843.25;;;4.52;47.91
46768;BME280;69007;48.978;18.066;2023-04-04T11:28:43;97841.19;;;4.91;47.01
46768;BME280;69007;48.978;18.066;2023-04-04T11:34:07;97876.44;;;5.33;45.22
46768;BME280;69007;48.978;18.066;2023-04-04T11:42:12;97828.22;;;5.37;46.87
46768;BME280;69007;48.978;18.066;2023-04-04T11:47:19;97845.16;;;5.44;46.86
46768;BME280;69007;48.978;18.066;2023-04-04T11:49:48;97853.19;;;5.32;47.29
46768;BME280;69007;48.978;18.066;2023-04-04T11:52:15;97864.94;;;4.83;47.81
46768;BME280;69007;48.978;18.066;2023-04-04T11:54:42;97827.78;;;4.66;47.49
46768;BME280;69007;48.978;18.066;2023-04-04T11:57:10;97830.34;;;4.98;48.13
46768;BME280;69007;48.978;18.066;2023-04-04T11:59:42;97819.69;;;5.03;46.20
46768;BME280;69007;48.978;18.066;2023-04-04T12:02:09;97838.22;;;5.37;46.48
46768;BME280;69007;48.978;18.066;2023-04-04T12:04:36;97846.16;;;5.13;47.02
46768;BME280;69007;48.978;18.066;2023-04-04T12:07:05;97821.34;;;4.86;47.51
46768;BME280;69007;48.978;18.066;2023-04-04T12:09:31;97843.59;;;4.99;48.22
46768;BME280;69007;48.978;18.066;2023-04-04T12:11:57;97833.09;;;4.73;48.24
46768;BME280;69007;48.978;18.066;2023-04-04T12:14:23;97843.22;;;4.96;48.50
46768;BME280;69007;48.978;18.066;2023-04-04T12:16:52;97837.91;;;4.71;47.17
46768;BME280;69007;48.978;18.066;2023-04-04T12:19:18;97842.19;;;4.53;48.30
46768;BME280;69007;48.978;18.066;2023-04-04T12:21:44;97813.91;;;4.63;48.72
46768;BME280;69007;48.978;18.066;2023-04-04T12:24:10;97789.16;;;4.72;48.65
46768;BME280;69007;48.978;18.066;2023-04-04T12:26:38;97827.13;;;4.89;47.26
46768;BME280;69007;48.978;18.066;2023-04-04T12:29:05;97817.16;;;4.90;46.88
46768;BME280;69007;48.978;18.066;2023-04-04T12:31:32;97826.91;;;4.91;46.69
46768;BME280;69007;48.978;18.066;2023-04-04T12:33:58;97809.44;;;4.75;47.61
46768;BME280;69007;48.978;18.066;2023-04-04T12:36:25;97822.16;;;4.86;46.37
46768;BME280;69007;48.978;18.066;2023-04-04T12:39:06;97808.09;;;4.84;47.11
46768;BME280;69007;48.978;18.066;2023-04-04T12:41:33;97811.97;;;4.70;48.38
46768;BME280;69007;48.978;18.066;2023-04-04T12:44:03;97820.53;;;4.85;47.06
46768;BME280;69007;48.978;18.066;2023-04-04T12:46:39;97790.34;;;4.76;47.44
46768;BME280;69007;48.978;18.066;2023-04-04T12:49:12;97793.88;;;4.95;46.52
46768;BME280;69007;48.978;18.066;2023-04-04T12:51:37;97793.34;;;5.05;47.35
46768;BME280;69007;48.978;18.066;2023-04-04T12:54:04;97806.97;;;5.10;46.24
46768;BME280;69007;48.978;18.066;2023-04-04T12:56:31;97784.19;;;5.25;46.57
46768;BME280;69007;48.978;18.066;2023-04-04T12:59:03;97782.31;;;5.56;45.81
46768;BME280;69007;48.978;18.066;2023-04-04T13:01:30;97796.78;;;5.61;46.19
46768;BME280;69007;48.978;18.066;2023-04-04T13:03:58;97782.41;;;5.49;46.30
46768;BME280;69007;48.978;18.066;2023-04-04T13:06:27;97759.69;;;5.26;47.33
46768;BME280;69007;48.978;18.066;2023-04-04T13:08:54;97781.84;;;5.28;48.65
46768;BME280;69007;48.978;18.066;2023-04-04T13:11:19;97793.94;;;5.07;48.74
46768;BME280;69007;48.978;18.066;2023-04-04T13:13:46;97765.78;;;4.66;48.25
46768;BME280;69007;48.978;18.066;2023-04-04T13:16:12;97773.34;;;4.32;49.40
46768;BME280;69007;48.978;18.066;2023-04-04T13:18:42;97774.69;;;4.23;50.09
46768;BME280;69007;48.978;18.066;2023-04-04T13:21:11;97783.00;;;4.21;51.16